Terminal Aerodrome Forecast
Issued by NWS Greer, SC

Home | Current Version | Previous Version | Text Only | Print | Product List | Glossary On
Versions: 1 2 3 4 5 6 7 8 9 10 11 12 13 14 15
000
FTUS42 KGSP 281121
TAFGSP
TAF
KGSP 281121Z 2812/0112 VRB02KT P6SM OVC030
      TEMPO 2813/2816 BKN018 BKN030
     FM281800 21008KT P6SM BKN035
     FM010000 22004KT P6SM BKN090
     FM010900 21009KT 5SM BR SCT010 BKN035=

USA.gov is the U.S. government's official web portal to all federal, state and local government web resources and services.